createdAt,value
2023-05-21T00:00:40.081Z,45.67
2023-05-21T00:03:13.796Z,45.66
2023-05-21T00:05:41.594Z,45.66
2023-05-21T00:08:09.378Z,45.67
2023-05-21T00:10:36.848Z,45.64
2023-05-21T00:13:04.529Z,45.65
2023-05-21T00:15:32.386Z,45.66
2023-05-21T00:17:59.913Z,45.64
2023-05-21T00:20:29.344Z,45.67
2023-05-21T00:22:57.053Z,45.67
2023-05-21T00:25:24.516Z,45.62
2023-05-21T00:27:51.946Z,45.63
2023-05-21T00:30:19.763Z,45.62
2023-05-21T00:32:47.443Z,45.64
2023-05-21T00:35:15.070Z,45.66
2023-05-21T00:37:42.902Z,45.67
2023-05-21T00:40:11.576Z,45.67
2023-05-21T00:42:39.386Z,45.67
2023-05-21T00:45:07.626Z,45.67
2023-05-21T00:47:35.454Z,45.70
2023-05-21T00:50:03.751Z,45.70
2023-05-21T00:52:31.630Z,45.71
2023-05-21T00:54:59.096Z,45.72
2023-05-21T00:57:27.205Z,45.73
2023-05-21T00:59:55.096Z,45.72
2023-05-21T01:02:24.391Z,45.77
2023-05-21T01:04:54.721Z,45.79
2023-05-21T01:07:22.446Z,45.89
2023-05-21T01:09:49.930Z,45.88
2023-05-21T01:12:18.134Z,45.89
2023-05-21T01:14:45.853Z,45.89
2023-05-21T01:17:13.490Z,45.88
2023-05-21T01:19:41.816Z,45.88
2023-05-21T01:22:09.572Z,45.87
2023-05-21T01:24:37.125Z,45.84
2023-05-21T01:27:07.743Z,45.82
2023-05-21T01:29:35.642Z,45.84
2023-05-21T01:32:09.776Z,45.81
2023-05-21T01:35:00.903Z,45.83
2023-05-21T01:37:38.756Z,45.80
2023-05-21T01:40:23.159Z,45.85
2023-05-21T01:42:50.634Z,45.96
2023-05-21T01:45:19.088Z,45.96
2023-05-21T01:47:48.301Z,45.97
2023-05-21T01:50:16.438Z,45.96
2023-05-21T01:53:03.961Z,45.92
2023-05-21T01:55:31.771Z,45.91
2023-05-21T01:58:02.018Z,45.89
2023-05-21T02:00:30.915Z,45.89
2023-05-21T02:02:59.009Z,45.89
2023-05-21T02:05:26.663Z,45.89
2023-05-21T02:07:54.937Z,45.87
2023-05-21T02:10:23.229Z,45.86
2023-05-21T02:12:51.447Z,45.83
2023-05-21T02:15:19.265Z,45.85
2023-05-21T02:17:47.208Z,45.82
2023-05-21T02:20:15.650Z,45.79
2023-05-21T02:22:47.052Z,45.78
2023-05-21T02:25:18.475Z,45.79
2023-05-21T02:27:47.030Z,45.79
2023-05-21T02:30:15.593Z,45.76
2023-05-21T02:32:43.642Z,45.77
2023-05-21T02:35:12.363Z,45.76
2023-05-21T02:37:40.695Z,45.76
2023-05-21T02:40:09.787Z,45.74
2023-05-21T02:42:39.572Z,45.75
2023-05-21T02:45:08.085Z,45.74
2023-05-21T02:47:35.774Z,45.57
2023-05-21T02:50:03.427Z,45.71
2023-05-21T02:52:31.676Z,45.76
2023-05-21T02:54:59.152Z,45.79
2023-05-21T02:57:26.660Z,45.78
2023-05-21T02:59:54.521Z,45.79
2023-05-21T03:02:23.094Z,45.76
2023-05-21T03:04:50.879Z,45.76
2023-05-21T03:07:20.090Z,45.74
2023-05-21T03:09:47.774Z,45.73
2023-05-21T03:12:15.414Z,45.67
2023-05-21T03:14:44.234Z,45.71
2023-05-21T03:17:14.103Z,45.65
2023-05-21T03:19:41.800Z,45.73
2023-05-21T03:22:09.615Z,45.75
2023-05-21T03:24:38.501Z,45.75
2023-05-21T03:27:06.849Z,45.79
2023-05-21T03:29:34.823Z,45.75
2023-05-21T03:32:02.653Z,45.76
2023-05-21T03:34:31.220Z,45.78
2023-05-21T03:36:59.468Z,45.80
2023-05-21T03:39:27.916Z,45.77
2023-05-21T03:41:55.890Z,45.76
2023-05-21T03:44:23.984Z,45.77
2023-05-21T03:46:51.925Z,45.74
2023-05-21T03:49:20.417Z,45.74
2023-05-21T03:51:48.785Z,45.75
2023-05-21T03:54:16.495Z,45.72
2023-05-21T03:56:44.099Z,45.73
2023-05-21T03:59:12.445Z,45.73
2023-05-21T04:01:39.960Z,45.74
2023-05-21T04:04:08.348Z,45.73
2023-05-21T04:06:35.859Z,45.73
2023-05-21T04:09:04.877Z,45.72
2023-05-21T04:11:32.582Z,45.71
2023-05-21T04:14:00.043Z,45.70
2023-05-21T04:16:27.568Z,45.70
2023-05-21T04:18:55.625Z,45.75
2023-05-21T04:21:23.275Z,45.85
2023-05-21T04:23:50.758Z,45.82
2023-05-21T04:26:19.740Z,45.81
2023-05-21T04:28:47.878Z,45.82
2023-05-21T04:31:15.737Z,45.80
2023-05-21T04:33:46.103Z,45.81
2023-05-21T04:36:13.816Z,45.81
2023-05-21T04:38:42.764Z,45.80
2023-05-21T04:41:11.179Z,45.76
2023-05-21T04:43:39.215Z,45.72
2023-05-21T04:46:07.668Z,45.68
2023-05-21T04:48:35.600Z,45.71
2023-05-21T04:51:05.748Z,45.72
2023-05-21T04:53:34.039Z,45.74
2023-05-21T04:56:03.215Z,45.76
2023-05-21T04:58:32.984Z,45.77
2023-05-21T05:01:03.279Z,45.73
2023-05-21T05:03:31.421Z,45.75
2023-05-21T05:06:00.103Z,45.75
2023-05-21T05:08:27.526Z,45.74
2023-05-21T05:10:55.241Z,45.74
2023-05-21T05:13:22.804Z,45.73
2023-05-21T05:15:51.537Z,45.72
2023-05-21T05:18:22.013Z,45.71
2023-05-21T05:20:49.521Z,45.72
2023-05-21T05:23:17.392Z,45.73
2023-05-21T05:25:45.363Z,45.73
2023-05-21T05:28:12.884Z,45.71
2023-05-21T05:30:40.764Z,45.73
2023-05-21T05:33:09.236Z,45.71
2023-05-21T05:35:36.917Z,45.71
2023-05-21T05:38:05.050Z,45.70
2023-05-21T05:40:33.469Z,45.74
2023-05-21T05:43:01.083Z,45.75
2023-05-21T05:45:28.647Z,45.75
2023-05-21T05:47:56.999Z,45.75
2023-05-21T05:50:24.484Z,45.71
2023-05-21T05:52:52.637Z,45.69
2023-05-21T05:55:22.058Z,45.67
2023-05-21T05:57:49.560Z,45.67
2023-05-21T06:00:17.726Z,45.64
2023-05-21T06:02:45.710Z,45.67
2023-05-21T06:05:13.240Z,45.66
2023-05-21T06:07:41.309Z,45.65
2023-05-21T06:10:09.360Z,45.65
2023-05-21T06:12:36.866Z,45.66
2023-05-21T06:15:05.705Z,45.63
2023-05-21T06:17:34.384Z,45.65
2023-05-21T06:20:02.692Z,45.42
2023-05-21T06:22:31.285Z,45.53
2023-05-21T06:24:59.077Z,45.59
2023-05-21T06:27:26.562Z,45.64
2023-05-21T06:29:54.165Z,45.66
2023-05-21T06:32:23.139Z,45.65
2023-05-21T06:34:50.981Z,45.62
2023-05-21T06:37:20.402Z,45.62
2023-05-21T06:39:48.121Z,45.62
2023-05-21T06:42:15.770Z,45.61
2023-05-21T06:44:44.224Z,45.60
2023-05-21T06:47:12.087Z,45.57
2023-05-21T06:49:39.858Z,45.54
2023-05-21T06:52:07.382Z,45.52
2023-05-21T06:54:36.424Z,45.51
2023-05-21T06:57:04.116Z,45.42
2023-05-21T06:59:32.022Z,45.39
2023-05-21T07:02:00.170Z,45.36
2023-05-21T07:04:29.202Z,44.69
2023-05-21T07:06:56.822Z,44.65
2023-05-21T07:09:24.813Z,44.59
2023-05-21T07:11:53.369Z,44.55
2023-05-21T07:14:22.094Z,44.59
2023-05-21T07:16:51.429Z,44.60
2023-05-21T07:19:19.025Z,44.57
2023-05-21T07:21:46.928Z,44.44
2023-05-21T07:24:14.642Z,43.92
2023-05-21T07:26:43.166Z,43.40
2023-05-21T07:29:11.301Z,43.20
2023-05-21T07:31:39.202Z,43.08
2023-05-21T07:34:06.907Z,42.61
2023-05-21T07:36:34.390Z,42.38
2023-05-21T07:39:02.136Z,42.36
2023-05-21T07:41:30.050Z,42.24
2023-05-21T07:43:58.499Z,42.35
2023-05-21T07:46:26.297Z,42.35
2023-05-21T07:48:54.242Z,41.99
2023-05-21T07:51:21.858Z,42.11
2023-05-21T07:53:49.549Z,42.08
2023-05-21T07:56:17.485Z,41.85
2023-05-21T07:58:45.900Z,41.93
2023-05-21T08:01:14.368Z,41.88
2023-05-21T08:03:42.383Z,41.97
2023-05-21T08:06:10.031Z,42.18
2023-05-21T08:08:37.528Z,42.37
2023-05-21T08:11:05.359Z,42.50
2023-05-21T08:13:34.404Z,42.66
2023-05-21T08:16:03.283Z,42.72
2023-05-21T08:18:31.285Z,42.84
2023-05-21T08:20:58.820Z,42.86
2023-05-21T08:23:27.292Z,42.87
2023-05-21T08:25:55.078Z,42.93
2023-05-21T08:28:23.366Z,43.04
2023-05-21T08:30:52.035Z,43.05
2023-05-21T08:33:21.434Z,43.21
2023-05-21T08:35:49.188Z,43.16
2023-05-21T08:38:17.720Z,43.14
2023-05-21T08:40:46.220Z,43.24
2023-05-21T08:43:16.441Z,43.30
2023-05-21T08:45:51.586Z,43.34
2023-05-21T08:48:19.378Z,43.36
2023-05-21T08:50:47.265Z,43.45
2023-05-21T08:53:27.111Z,43.46
2023-05-21T08:55:57.418Z,43.40
2023-05-21T08:58:25.716Z,43.47
2023-05-21T09:00:54.657Z,43.45
2023-05-21T09:03:23.150Z,43.50
2023-05-21T09:05:51.836Z,43.53
2023-05-21T09:08:27.388Z,43.53
2023-05-21T09:10:55.601Z,43.59
2023-05-21T09:13:23.535Z,43.58
2023-05-21T09:15:51.714Z,43.58
2023-05-21T09:18:19.675Z,43.60
2023-05-21T09:20:47.662Z,43.60
2023-05-21T09:23:17.466Z,43.61
2023-05-21T09:25:46.639Z,43.63
2023-05-21T09:28:15.488Z,43.59
2023-05-21T09:30:46.556Z,43.60
2023-05-21T09:33:29.368Z,43.58
2023-05-21T09:35:56.918Z,43.57
2023-05-21T09:38:26.974Z,43.54
2023-05-21T09:40:57.526Z,43.53
2023-05-21T09:43:26.940Z,43.58
2023-05-21T09:45:56.096Z,43.53
2023-05-21T09:48:37.878Z,43.54
2023-05-21T09:51:14.404Z,43.50
2023-05-21T09:54:01.133Z,43.52
2023-05-21T09:56:32.169Z,43.52
2023-05-21T09:59:01.469Z,43.51
2023-05-21T10:01:29.357Z,43.56
2023-05-21T10:03:58.090Z,43.53
2023-05-21T10:06:29.946Z,43.54
2023-05-21T10:08:59.478Z,43.47
2023-05-21T10:11:27.814Z,43.44
2023-05-21T10:14:04.846Z,43.43
2023-05-21T10:16:33.865Z,43.42
2023-05-21T10:19:01.442Z,43.44
2023-05-21T10:21:29.029Z,43.46
2023-05-21T10:23:57.140Z,43.47
2023-05-21T10:26:24.908Z,43.39
2023-05-21T10:28:52.421Z,43.40
2023-05-21T10:31:20.247Z,43.36
2023-05-21T10:33:47.702Z,43.26
2023-05-21T10:36:22.003Z,43.22
2023-05-21T10:38:49.754Z,43.26
2023-05-21T10:41:18.315Z,43.21
2023-05-21T10:44:10.717Z,43.12
2023-05-21T10:46:41.100Z,43.19
2023-05-21T10:49:22.741Z,43.24
2023-05-21T10:52:18.238Z,43.19
2023-05-21T10:54:55.269Z,43.09
2023-05-21T10:58:13.458Z,43.01
2023-05-21T11:00:42.169Z,42.94
2023-05-21T11:03:11.546Z,42.98
2023-05-21T11:05:51.717Z,43.02
2023-05-21T11:08:26.015Z,42.99
2023-05-21T11:10:58.196Z,42.99
2023-05-21T11:13:26.968Z,43.03
2023-05-21T11:18:42.425Z,43.06
2023-05-21T11:21:30.522Z,43.08
2023-05-21T11:24:02.706Z,43.09
2023-05-21T11:26:52.282Z,43.12
2023-05-21T11:29:20.126Z,43.13
2023-05-21T11:31:48.729Z,43.11
2023-05-21T11:34:21.910Z,43.17
2023-05-21T11:36:49.934Z,43.20
2023-05-21T11:39:21.982Z,43.20
2023-05-21T11:42:03.144Z,43.22
2023-05-21T11:44:40.828Z,43.21
2023-05-21T11:47:12.308Z,43.23
2023-05-21T11:49:39.776Z,43.28
2023-05-21T11:52:07.865Z,43.30
2023-05-21T11:54:50.716Z,43.35
2023-05-21T11:57:21.220Z,43.37
2023-05-21T11:59:51.517Z,43.44
2023-05-21T12:02:19.403Z,43.51
2023-05-21T12:04:48.620Z,43.35
2023-05-21T12:07:17.390Z,43.53
2023-05-21T12:09:51.089Z,43.66
2023-05-21T12:12:21.480Z,43.76
2023-05-21T12:14:55.194Z,43.80
2023-05-21T12:17:23.668Z,43.63
2023-05-21T12:19:52.905Z,43.84
2023-05-21T12:22:20.521Z,43.95
2023-05-21T12:24:51.160Z,44.16
2023-05-21T12:27:18.619Z,44.21
2023-05-21T12:29:47.330Z,44.29
2023-05-21T12:32:15.781Z,44.37
2023-05-21T12:34:51.474Z,44.41
2023-05-21T12:37:23.152Z,44.52
2023-05-21T12:39:51.607Z,44.54
2023-05-21T12:42:30.067Z,44.57
2023-05-21T12:44:57.644Z,44.62
2023-05-21T12:47:29.012Z,44.66
2023-05-21T12:50:03.985Z,44.75
2023-05-21T12:52:31.708Z,44.76
2023-05-21T12:54:59.342Z,44.81
2023-05-21T12:57:30.744Z,44.82
2023-05-21T12:59:59.731Z,44.87
2023-05-21T13:02:28.995Z,44.86
2023-05-21T13:04:57.251Z,44.88
2023-05-21T13:07:29.362Z,44.87
2023-05-21T13:09:56.925Z,44.90
2023-05-21T13:12:29.190Z,44.89
2023-05-21T13:15:00.909Z,44.93
2023-05-21T13:17:28.814Z,44.95
2023-05-21T13:20:08.769Z,44.95
2023-05-21T13:22:39.126Z,44.96
2023-05-21T13:25:07.105Z,44.99
2023-05-21T13:27:34.422Z,44.79
2023-05-21T13:30:02.235Z,44.91
2023-05-21T13:32:29.952Z,45.02
2023-05-21T13:34:57.594Z,45.03
2023-05-21T13:37:25.430Z,45.00
2023-05-21T13:39:52.875Z,44.95
2023-05-21T13:42:21.201Z,44.95
2023-05-21T13:44:48.976Z,44.94
2023-05-21T13:47:16.562Z,44.88
2023-05-21T13:49:43.983Z,44.76
2023-05-21T13:52:11.904Z,44.68
2023-05-21T13:54:39.768Z,44.61
2023-05-21T13:57:07.215Z,44.59
2023-05-21T13:59:34.970Z,44.55
2023-05-21T14:02:02.559Z,44.46
2023-05-21T14:04:30.412Z,44.36
2023-05-21T14:06:57.867Z,44.26
2023-05-21T14:09:27.315Z,44.22
2023-05-21T14:11:58.794Z,44.19
2023-05-21T14:14:26.374Z,44.18
2023-05-21T14:16:54.252Z,44.23
2023-05-21T14:19:22.204Z,44.26
2023-05-21T14:21:51.958Z,44.31
2023-05-21T14:24:19.907Z,44.38
2023-05-21T14:26:47.671Z,44.39
2023-05-21T14:29:15.133Z,44.45
2023-05-21T14:31:42.597Z,44.49
2023-05-21T14:34:10.339Z,44.52
2023-05-21T14:36:37.784Z,44.56
2023-05-21T14:39:05.296Z,44.58
2023-05-21T14:41:32.988Z,44.61
2023-05-21T14:44:00.443Z,44.62
2023-05-21T14:46:28.060Z,44.63
2023-05-21T14:48:59.216Z,44.67
2023-05-21T14:51:26.726Z,44.65
2023-05-21T14:53:54.338Z,44.65
2023-05-21T14:56:23.490Z,44.64
2023-05-21T14:58:51.091Z,44.62
2023-05-21T15:01:18.635Z,44.60
2023-05-21T15:03:46.519Z,44.60
2023-05-21T15:06:13.981Z,44.57
2023-05-21T15:08:41.509Z,44.54
2023-05-21T15:11:10.012Z,44.51
2023-05-21T15:13:38.191Z,44.50
2023-05-21T15:16:06.187Z,44.48
2023-05-21T15:18:33.987Z,44.49
2023-05-21T15:21:01.493Z,44.36
2023-05-21T15:23:29.051Z,44.26
2023-05-21T15:25:56.826Z,44.33
2023-05-21T15:28:24.290Z,44.38
2023-05-21T15:30:51.783Z,44.39
2023-05-21T15:33:19.522Z,44.36
2023-05-21T15:35:47.067Z,44.32
2023-05-21T15:38:14.547Z,44.36
2023-05-21T15:40:42.736Z,44.36
2023-05-21T15:43:10.202Z,44.31
2023-05-21T15:45:38.794Z,44.10
2023-05-21T15:48:07.312Z,44.07
2023-05-21T15:50:38.199Z,44.13
2023-05-21T15:53:05.673Z,44.21
2023-05-21T15:55:33.723Z,44.26
2023-05-21T15:58:03.181Z,44.29
2023-05-21T16:00:30.760Z,44.32
2023-05-21T16:02:58.576Z,44.39
2023-05-21T16:05:26.389Z,44.44
2023-05-21T16:07:53.836Z,44.46
2023-05-21T16:10:21.658Z,44.27
2023-05-21T16:12:49.158Z,44.02
2023-05-21T16:15:16.760Z,43.78
2023-05-21T16:17:44.548Z,43.69
2023-05-21T16:20:12.718Z,43.65
2023-05-21T16:22:40.720Z,43.29
2023-05-21T16:25:09.980Z,42.88
2023-05-21T16:27:37.442Z,42.48
2023-05-21T16:30:05.541Z,41.80
2023-05-21T16:32:33.334Z,41.87
2023-05-21T16:35:00.832Z,41.91
2023-05-21T16:37:28.310Z,41.69
2023-05-21T16:39:56.106Z,41.54
2023-05-21T16:42:24.957Z,41.44
2023-05-21T16:44:52.427Z,41.42
2023-05-21T16:47:20.330Z,41.29
2023-05-21T16:49:47.867Z,41.36
2023-05-21T16:52:15.356Z,41.31
2023-05-21T16:54:48.437Z,41.26
2023-05-21T16:57:16.211Z,41.10
2023-05-21T16:59:43.908Z,40.97
2023-05-21T17:02:11.824Z,41.02
2023-05-21T17:04:41.378Z,40.95
2023-05-21T17:07:09.161Z,40.87
2023-05-21T17:09:36.649Z,40.88
2023-05-21T17:12:04.312Z,40.81
2023-05-21T17:14:34.344Z,40.84
2023-05-21T17:17:02.536Z,40.62
2023-05-21T17:19:30.052Z,40.50
2023-05-21T17:21:57.920Z,40.64
2023-05-21T17:24:25.879Z,40.81
2023-05-21T17:26:53.694Z,40.86
2023-05-21T17:29:21.501Z,40.98
2023-05-21T17:31:50.057Z,41.03
2023-05-21T17:34:18.063Z,41.05
2023-05-21T17:36:45.853Z,41.11
2023-05-21T17:39:13.402Z,41.15
2023-05-21T17:41:40.912Z,41.22
2023-05-21T17:44:08.620Z,41.32
2023-05-21T17:46:36.090Z,41.36
2023-05-21T17:49:03.755Z,41.42
2023-05-21T17:51:31.635Z,41.45
2023-05-21T17:53:59.461Z,41.54
2023-05-21T17:56:27.000Z,41.52
2023-05-21T17:58:55.231Z,41.61
2023-05-21T18:01:22.849Z,41.64
2023-05-21T18:03:50.690Z,41.71
2023-05-21T18:06:18.279Z,41.52
2023-05-21T18:08:45.750Z,41.46
2023-05-21T18:11:13.509Z,41.65
2023-05-21T18:13:41.044Z,41.77
2023-05-21T18:16:08.537Z,41.84
2023-05-21T18:18:36.310Z,41.99
2023-05-21T18:21:03.909Z,42.14
2023-05-21T18:23:31.467Z,42.23
2023-05-21T18:25:59.191Z,42.36
2023-05-21T18:28:29.310Z,42.42
2023-05-21T18:31:00.841Z,42.50
2023-05-21T18:33:28.534Z,42.58
2023-05-21T18:35:56.201Z,42.67
2023-05-21T18:38:23.675Z,42.76
2023-05-21T18:40:51.461Z,42.80
2023-05-21T18:43:18.937Z,42.87
2023-05-21T18:45:46.673Z,42.92
2023-05-21T18:48:14.605Z,42.99
2023-05-21T18:50:44.725Z,43.02
2023-05-21T18:53:11.989Z,43.04
2023-05-21T18:55:39.779Z,42.91
2023-05-21T18:58:07.419Z,43.14
2023-05-21T19:00:35.265Z,43.18
2023-05-21T19:03:03.528Z,43.22
2023-05-21T19:05:31.831Z,43.25
2023-05-21T19:07:59.664Z,43.28
2023-05-21T19:10:27.449Z,43.29
2023-05-21T19:12:55.007Z,43.31
2023-05-21T19:15:22.466Z,43.31
2023-05-21T19:17:50.352Z,43.33
2023-05-21T19:20:24.709Z,43.32
2023-05-21T19:22:53.711Z,43.34
2023-05-21T19:25:21.346Z,43.37
2023-05-21T19:27:48.984Z,43.34
2023-05-21T19:30:16.915Z,43.33
2023-05-21T19:32:46.156Z,43.34
2023-05-21T19:35:13.733Z,43.34
2023-05-21T19:37:41.540Z,43.34
2023-05-21T19:40:09.562Z,43.34
2023-05-21T19:42:37.549Z,43.32
2023-05-21T19:45:09.447Z,43.32
2023-05-21T19:47:37.139Z,43.31
2023-05-21T19:50:05.349Z,43.28
2023-05-21T19:52:32.888Z,43.29
2023-05-21T19:55:04.806Z,43.35
2023-05-21T19:57:33.794Z,43.33
2023-05-21T20:00:01.356Z,43.37
2023-05-21T20:02:40.986Z,43.40
2023-05-21T20:05:09.399Z,43.44
2023-05-21T20:07:37.085Z,43.42
2023-05-21T20:10:04.952Z,43.38
2023-05-21T20:12:32.644Z,43.39
2023-05-21T20:15:00.908Z,43.38
2023-05-21T20:17:33.935Z,43.34
2023-05-21T20:20:03.663Z,43.37
2023-05-21T20:22:31.904Z,43.33
2023-05-21T20:25:01.448Z,43.31
2023-05-21T20:27:29.328Z,43.31
2023-05-21T20:29:56.797Z,43.32
2023-05-21T20:32:24.261Z,43.31
2023-05-21T20:35:02.807Z,43.38
2023-05-21T20:37:32.820Z,43.35
2023-05-21T20:40:00.677Z,43.32
2023-05-21T20:42:34.164Z,43.33
2023-05-21T20:45:03.056Z,43.35
2023-05-21T20:47:31.097Z,43.35
2023-05-21T20:50:02.911Z,43.32
2023-05-21T20:52:30.793Z,43.37
2023-05-21T20:54:59.745Z,43.33
2023-05-21T20:57:27.412Z,43.38
2023-05-21T20:59:55.085Z,43.36
2023-05-21T21:02:23.013Z,43.39
2023-05-21T21:04:50.674Z,43.39
2023-05-21T21:07:18.767Z,43.44
2023-05-21T21:09:46.962Z,43.50
2023-05-21T21:12:25.117Z,43.51
2023-05-21T21:14:54.274Z,43.49
2023-05-21T21:17:21.908Z,43.42
2023-05-21T21:19:49.446Z,43.44
2023-05-21T21:22:18.348Z,43.42
2023-05-21T21:24:46.016Z,43.47
2023-05-21T21:27:13.559Z,43.49
2023-05-21T21:29:41.327Z,43.51
2023-05-21T21:32:08.788Z,43.60
2023-05-21T21:34:36.307Z,43.61
2023-05-21T21:37:04.406Z,43.62
2023-05-21T21:39:31.826Z,43.62
2023-05-21T21:41:59.349Z,43.70
2023-05-21T21:44:27.102Z,43.69
2023-05-21T21:46:54.589Z,43.69
2023-05-21T21:49:22.002Z,43.80
2023-05-21T21:51:51.274Z,43.83
2023-05-21T21:54:18.750Z,43.87
2023-05-21T21:56:46.396Z,43.88
2023-05-21T21:59:14.235Z,43.92
2023-05-21T22:01:42.716Z,44.02
2023-05-21T22:04:11.333Z,44.05
2023-05-21T22:06:39.157Z,44.05
2023-05-21T22:09:07.565Z,44.04
2023-05-21T22:11:35.447Z,44.04
2023-05-21T22:14:04.376Z,44.03
2023-05-21T22:16:33.419Z,44.02
2023-05-21T22:19:01.459Z,44.03
2023-05-21T22:21:29.457Z,44.05
2023-05-21T22:23:57.040Z,44.08
2023-05-21T22:26:24.771Z,44.08
2023-05-21T22:28:52.674Z,44.06
2023-05-21T22:31:20.195Z,44.05
2023-05-21T22:33:47.987Z,44.07
2023-05-21T22:36:15.419Z,44.05
2023-05-21T22:38:43.828Z,44.04
2023-05-21T22:41:11.567Z,44.05
2023-05-21T22:43:39.004Z,44.06
2023-05-21T22:46:06.506Z,44.07
2023-05-21T22:48:37.252Z,44.03
2023-05-21T22:51:05.526Z,44.06
2023-05-21T22:53:33.442Z,44.07
2023-05-21T22:56:01.257Z,44.05
2023-05-21T22:58:28.732Z,44.07
2023-05-21T23:00:56.175Z,44.09
2023-05-21T23:03:23.919Z,44.05
2023-05-21T23:05:51.432Z,44.10
2023-05-21T23:08:19.016Z,44.13
2023-05-21T23:10:46.773Z,44.11
2023-05-21T23:13:14.211Z,44.11
2023-05-21T23:15:43.842Z,44.11
2023-05-21T23:18:12.536Z,44.10
2023-05-21T23:20:41.057Z,44.06
2023-05-21T23:23:09.842Z,44.06
2023-05-21T23:25:37.594Z,44.04
2023-05-21T23:28:05.153Z,44.04
2023-05-21T23:30:32.622Z,44.07
2023-05-21T23:33:00.583Z,44.06
2023-05-21T23:35:28.151Z,44.06
2023-05-21T23:37:55.906Z,44.06
2023-05-21T23:40:23.699Z,44.06
2023-05-21T23:42:51.162Z,44.06
2023-05-21T23:45:18.603Z,44.03
2023-05-21T23:47:46.627Z,44.01
2023-05-21T23:50:14.154Z,44.02
2023-05-21T23:52:41.658Z,44.00
2023-05-21T23:55:11.581Z,44.02
2023-05-21T23:57:39.043Z,43.99
